createdAt,value
2022-08-12T00:02:05.100Z,26.40
2022-08-12T00:05:11.784Z,26.40
2022-08-12T00:08:17.792Z,26.40
2022-08-12T00:11:37.114Z,26.40
2022-08-12T00:14:44.731Z,26.40
2022-08-12T00:17:51.077Z,26.30
2022-08-12T00:20:57.485Z,26.30
2022-08-12T00:24:03.487Z,26.20
2022-08-12T00:27:09.528Z,26.20
2022-08-12T00:30:16.842Z,26.10
2022-08-12T00:33:23.414Z,26.10
2022-08-12T00:36:36.520Z,26.10
2022-08-12T00:39:44.245Z,26.00
2022-08-12T00:42:31.700Z,25.90
2022-08-12T00:45:21.704Z,25.90
2022-08-12T00:48:10.257Z,25.80
2022-08-12T00:50:58.788Z,25.80
2022-08-12T00:53:47.338Z,25.70
2022-08-12T00:56:36.682Z,25.70
2022-08-12T00:59:25.157Z,25.60
2022-08-12T01:02:24.445Z,25.60
2022-08-12T01:05:33.185Z,25.60
2022-08-12T01:08:44.792Z,25.50
2022-08-12T01:11:33.326Z,25.50
2022-08-12T01:14:24.043Z,25.40
2022-08-12T01:17:15.060Z,25.40
2022-08-12T01:20:07.763Z,25.30
2022-08-12T01:23:16.378Z,25.30
2022-08-12T01:26:07.394Z,25.30
2022-08-12T01:28:58.822Z,25.30
2022-08-12T01:31:47.898Z,25.20
2022-08-12T01:34:38.427Z,25.20
2022-08-12T01:37:27.600Z,25.20
2022-08-12T01:40:33.207Z,25.20
2022-08-12T01:43:27.351Z,25.10
2022-08-12T01:46:25.920Z,25.20
2022-08-12T01:49:36.268Z,25.10
2022-08-12T01:52:31.890Z,25.10
2022-08-12T01:55:22.587Z,25.10
2022-08-12T01:58:24.119Z,25.10
2022-08-12T02:01:13.551Z,25.10
2022-08-12T02:04:25.327Z,25.10
2022-08-12T02:07:38.825Z,25.10
2022-08-12T02:11:06.232Z,25.10
2022-08-12T02:14:21.160Z,25.10
2022-08-12T02:17:55.543Z,25.10
2022-08-12T02:20:51.516Z,25.10
2022-08-12T02:23:41.367Z,25.10
2022-08-12T02:26:30.207Z,25.10
2022-08-12T02:29:20.205Z,25.10
2022-08-12T02:32:09.245Z,25.10
2022-08-12T02:34:59.142Z,25.10
2022-08-12T02:37:49.196Z,25.10
2022-08-12T02:40:39.776Z,25.10
2022-08-12T02:43:38.942Z,25.10
2022-08-12T02:46:34.303Z,25.10
2022-08-12T02:49:25.567Z,25.10
2022-08-12T02:52:16.226Z,25.10
2022-08-12T02:55:28.269Z,25.10
2022-08-12T02:58:32.996Z,25.10
2022-08-12T03:01:28.486Z,25.10
2022-08-12T03:04:26.806Z,25.10
2022-08-12T03:07:21.406Z,25.10
2022-08-12T03:10:15.802Z,25.10
2022-08-12T03:13:07.117Z,25.10
2022-08-12T03:15:56.135Z,25.10
2022-08-12T03:18:46.176Z,25.10
2022-08-12T03:21:55.507Z,25.10
2022-08-12T03:24:46.349Z,25.00
2022-08-12T03:27:34.860Z,25.10
2022-08-12T03:30:24.607Z,25.00
2022-08-12T03:33:14.538Z,25.10
2022-08-12T03:36:03.138Z,25.10
2022-08-12T03:39:12.442Z,25.00
2022-08-12T03:42:08.966Z,25.00
2022-08-12T03:45:26.970Z,25.00
2022-08-12T03:48:33.413Z,25.00
2022-08-12T03:51:39.783Z,25.00
2022-08-12T03:54:45.795Z,25.00
2022-08-12T03:57:53.163Z,24.90
2022-08-12T04:00:41.776Z,24.90
2022-08-12T04:03:48.212Z,24.90
2022-08-12T04:06:36.773Z,24.80
2022-08-12T04:09:25.332Z,24.80
2022-08-12T04:12:32.421Z,24.80
2022-08-12T04:15:25.818Z,24.70
2022-08-12T04:18:15.932Z,24.70
2022-08-12T04:21:05.148Z,24.70
2022-08-12T04:23:54.126Z,24.60
2022-08-12T04:26:42.624Z,24.50
2022-08-12T04:30:16.571Z,24.50
2022-08-12T04:32:44.446Z,24.50
2022-08-12T04:35:33.417Z,24.50
2022-08-12T04:38:21.929Z,24.40
2022-08-12T04:41:10.836Z,24.40
2022-08-12T04:44:01.883Z,24.40
2022-08-12T04:46:51.141Z,24.30
2022-08-12T04:49:41.250Z,24.30
2022-08-12T04:52:34.768Z,24.30
2022-08-12T04:55:23.817Z,24.20
2022-08-12T04:58:12.660Z,24.20
2022-08-12T05:01:03.522Z,24.20
2022-08-12T05:03:52.478Z,24.10
2022-08-12T05:06:42.616Z,24.10
2022-08-12T05:09:58.688Z,24.10
2022-08-12T05:12:45.440Z,24.10
2022-08-12T05:15:35.317Z,24.10
2022-08-12T05:18:24.820Z,24.10
2022-08-12T05:21:13.312Z,24.10
2022-08-12T05:24:03.433Z,24.10
2022-08-12T05:26:52.392Z,24.10
2022-08-12T05:30:05.341Z,24.10
2022-08-12T05:32:49.818Z,24.10
2022-08-12T05:35:44.204Z,24.20
2022-08-12T05:44:23.336Z,24.40
2022-08-12T05:47:12.425Z,24.30
2022-08-12T05:50:00.997Z,24.50
2022-08-12T05:52:49.582Z,24.80
2022-08-12T05:55:41.508Z,25.10
2022-08-12T05:58:30.966Z,25.30
2022-08-12T06:02:10.462Z,25.40
2022-08-12T06:04:30.059Z,25.50
2022-08-12T06:07:59.301Z,25.60
2022-08-12T06:10:31.494Z,25.60
2022-08-12T06:13:28.112Z,25.60
2022-08-12T06:16:22.097Z,25.70
2022-08-12T06:19:10.575Z,25.80
2022-08-12T06:21:59.394Z,25.80
2022-08-12T06:24:48.443Z,25.90
2022-08-12T06:28:06.318Z,26.00
2022-08-12T06:31:25.697Z,26.00
2022-08-12T06:35:26.456Z,26.10
2022-08-12T06:37:12.733Z,26.20
2022-08-12T06:40:03.921Z,26.40
2022-08-12T06:42:52.850Z,26.50
2022-08-12T06:45:46.804Z,26.50
2022-08-12T06:48:35.921Z,26.70
2022-08-12T06:51:25.896Z,26.80
2022-08-12T06:54:14.401Z,27.00
2022-08-12T06:58:05.700Z,27.10
2022-08-12T07:00:32.598Z,27.30
2022-08-12T07:03:27.554Z,27.60
2022-08-12T07:06:16.264Z,27.80
2022-08-12T07:09:07.038Z,28.00
2022-08-12T07:11:55.539Z,28.30
2022-08-12T07:14:48.799Z,28.40
2022-08-12T07:17:41.186Z,28.50
2022-08-12T07:20:51.361Z,28.70
2022-08-12T07:23:39.803Z,28.80
2022-08-12T07:26:29.584Z,29.00
2022-08-12T07:29:18.673Z,29.20
2022-08-12T07:32:07.441Z,29.40
2022-08-12T07:34:55.996Z,29.50
2022-08-12T07:37:44.440Z,29.70
2022-08-12T07:40:32.877Z,30.00
2022-08-12T07:43:22.692Z,30.20
2022-08-12T07:46:13.744Z,30.40
2022-08-12T07:49:04.991Z,30.70
2022-08-12T07:51:53.413Z,30.90
2022-08-12T07:54:41.865Z,31.10
2022-08-12T07:57:32.334Z,31.20
2022-08-12T08:00:22.686Z,31.30
2022-08-12T08:03:13.327Z,31.40
2022-08-12T08:06:01.787Z,31.40
2022-08-12T08:08:50.262Z,31.50
2022-08-12T08:11:56.304Z,31.60
2022-08-12T08:14:46.401Z,31.70
2022-08-12T08:17:39.700Z,31.80
2022-08-12T08:20:33.774Z,31.90
2022-08-12T08:23:22.228Z,31.90
2022-08-12T08:26:17.980Z,31.90
2022-08-12T08:29:08.814Z,31.90
2022-08-12T08:32:00.185Z,32.00
2022-08-12T08:34:53.820Z,32.00
2022-08-12T08:37:46.900Z,32.00
2022-08-12T08:40:58.732Z,32.00
2022-08-12T08:43:47.197Z,32.00
2022-08-12T08:46:38.010Z,32.10
2022-08-12T08:49:27.175Z,32.10
2022-08-12T08:52:38.408Z,32.10
2022-08-12T08:55:47.960Z,32.10
2022-08-12T08:58:38.329Z,32.10
2022-08-12T09:01:36.489Z,32.20
2022-08-12T09:05:13.155Z,32.20
2022-08-12T09:07:59.459Z,32.30
2022-08-12T09:11:13.557Z,32.30
2022-08-12T09:14:29.265Z,32.40
2022-08-12T09:17:21.469Z,32.50
2022-08-12T09:20:11.000Z,32.60
2022-08-12T09:23:07.991Z,32.70
2022-08-12T09:26:18.950Z,32.80
2022-08-12T09:29:11.805Z,32.90
2022-08-12T09:32:06.866Z,32.90
2022-08-12T09:34:57.678Z,33.00
2022-08-12T09:37:55.342Z,33.00
2022-08-12T09:40:57.072Z,33.00
2022-08-12T09:44:06.289Z,33.10
2022-08-12T09:47:10.633Z,33.20
2022-08-12T09:49:59.487Z,33.30
2022-08-12T09:52:54.390Z,33.40
2022-08-12T09:56:06.434Z,33.50
2022-08-12T09:59:01.340Z,33.60
2022-08-12T10:02:53.069Z,33.70
2022-08-12T10:04:59.562Z,33.80
2022-08-12T10:07:48.201Z,33.80
2022-08-12T10:10:56.689Z,33.80
2022-08-12T10:13:45.190Z,33.90
2022-08-12T10:16:43.539Z,33.70
2022-08-12T10:19:36.177Z,33.70
2022-08-12T10:22:39.028Z,33.60
2022-08-12T10:26:35.442Z,33.60
2022-08-12T10:30:01.185Z,33.60
2022-08-12T10:32:45.278Z,33.60
2022-08-12T10:35:38.397Z,33.60
2022-08-12T10:38:34.303Z,33.60
2022-08-12T10:41:56.799Z,33.70
2022-08-12T10:44:46.915Z,33.80
2022-08-12T10:48:19.810Z,33.80
2022-08-12T10:50:56.710Z,33.90
2022-08-12T10:53:52.600Z,34.10
2022-08-12T10:56:41.713Z,34.10
2022-08-12T10:59:39.146Z,34.10
2022-08-12T11:04:26.254Z,34.20
2022-08-12T11:07:05.820Z,34.30
2022-08-12T11:09:10.623Z,34.40
2022-08-12T11:12:36.949Z,34.50
2022-08-12T11:15:19.257Z,34.60
2022-08-12T11:18:18.114Z,34.60
2022-08-12T11:21:07.426Z,34.70
2022-08-12T11:24:04.743Z,34.60
2022-08-12T11:26:53.311Z,34.60
2022-08-12T11:30:02.502Z,34.70
2022-08-12T11:32:50.324Z,34.70
2022-08-12T11:35:41.529Z,34.80
2022-08-12T11:38:31.569Z,34.80
2022-08-12T11:41:31.042Z,34.90
2022-08-12T11:44:36.656Z,34.90
2022-08-12T11:47:29.215Z,35.00
2022-08-12T11:50:20.217Z,35.00
2022-08-12T11:53:59.611Z,35.00
2022-08-12T11:56:18.522Z,35.00
2022-08-12T12:02:19.285Z,35.00
2022-08-12T12:05:10.018Z,35.10
2022-08-12T12:08:37.638Z,35.20
2022-08-12T12:11:09.257Z,35.20
2022-08-12T12:14:08.616Z,35.20
2022-08-12T12:16:59.716Z,35.30
2022-08-12T12:19:48.603Z,35.30
2022-08-12T12:22:37.095Z,35.30
2022-08-12T12:25:59.493Z,35.40
2022-08-12T12:28:38.361Z,35.50
2022-08-12T12:32:08.979Z,35.50
2022-08-12T12:34:36.505Z,35.60
2022-08-12T12:37:58.990Z,35.50
2022-08-12T12:40:39.720Z,35.50
2022-08-12T12:43:42.767Z,35.50
2022-08-12T12:46:34.618Z,35.50
2022-08-12T12:49:26.162Z,35.50
2022-08-12T12:52:18.893Z,35.50
2022-08-12T12:55:10.940Z,35.60
2022-08-12T12:58:04.704Z,35.70
2022-08-12T13:00:59.731Z,35.70
2022-08-12T13:03:56.320Z,35.80
2022-08-12T13:06:52.058Z,35.80
2022-08-12T13:09:40.523Z,35.80
2022-08-12T13:12:35.187Z,35.70
2022-08-12T13:15:45.237Z,35.70
2022-08-12T13:18:37.308Z,35.60
2022-08-12T13:21:36.624Z,35.60
2022-08-12T13:24:25.974Z,35.50
2022-08-12T13:27:20.667Z,35.50
2022-08-12T13:30:12.005Z,35.40
2022-08-12T13:33:00.667Z,35.30
2022-08-12T13:36:05.689Z,35.30
2022-08-12T13:38:57.449Z,35.30
2022-08-12T13:41:45.944Z,35.30
2022-08-12T13:44:37.980Z,35.30
2022-08-12T13:47:27.567Z,35.30
2022-08-12T13:50:17.129Z,35.30
2022-08-12T13:53:24.642Z,35.30
2022-08-12T13:56:19.317Z,35.30
2022-08-12T13:59:09.210Z,35.40
2022-08-12T14:01:57.787Z,35.50
2022-08-12T14:04:56.459Z,35.50
2022-08-12T14:07:59.074Z,35.50
2022-08-12T14:10:53.353Z,35.50
2022-08-12T14:14:03.854Z,35.50
2022-08-12T14:16:53.874Z,35.40
2022-08-12T14:20:04.385Z,35.40
2022-08-12T14:22:56.475Z,35.40
2022-08-12T14:25:47.238Z,35.40
2022-08-12T14:28:45.454Z,35.50
2022-08-12T14:31:53.246Z,35.50
2022-08-12T14:34:42.835Z,35.40
2022-08-12T14:37:57.829Z,35.30
2022-08-12T14:40:41.665Z,35.30
2022-08-12T14:43:58.920Z,35.20
2022-08-12T14:46:41.975Z,35.10
2022-08-12T14:50:37.326Z,35.10
2022-08-12T14:55:36.110Z,35.10
2022-08-12T14:59:23.878Z,35.20
2022-08-12T15:02:20.485Z,35.20
2022-08-12T15:05:10.826Z,35.20
2022-08-12T15:08:24.948Z,35.10
2022-08-12T15:11:17.170Z,35.00
2022-08-12T15:14:15.479Z,34.90
2022-08-12T15:17:08.238Z,34.90
2022-08-12T15:20:31.790Z,34.90
2022-08-12T15:23:18.099Z,34.90
2022-08-12T15:26:20.640Z,34.90
2022-08-12T15:29:16.940Z,34.90
2022-08-12T15:32:15.773Z,35.00
2022-08-12T15:35:11.947Z,35.00
2022-08-12T15:38:10.290Z,34.90
2022-08-12T15:41:01.275Z,34.90
2022-08-12T15:44:16.000Z,34.70
2022-08-12T15:46:58.683Z,34.60
2022-08-12T15:49:59.780Z,34.50
2022-08-12T15:52:49.578Z,34.50
2022-08-12T15:55:45.751Z,34.40
2022-08-12T15:58:38.210Z,34.30
2022-08-12T16:01:35.054Z,34.20
2022-08-12T16:04:23.759Z,34.20
2022-08-12T16:07:12.210Z,34.10
2022-08-12T16:10:06.874Z,34.10
2022-08-12T16:12:58.830Z,34.10
2022-08-12T16:15:51.065Z,34.10
2022-08-12T16:18:52.717Z,34.10
2022-08-12T16:21:52.274Z,34.00
2022-08-12T16:24:47.112Z,33.90
2022-08-12T16:27:41.785Z,33.80
2022-08-12T16:30:34.174Z,33.70
2022-08-12T16:33:24.744Z,33.70
2022-08-12T16:36:18.793Z,33.60
2022-08-12T16:39:07.607Z,33.60
2022-08-12T16:41:57.440Z,33.50
2022-08-12T16:44:46.142Z,33.50
2022-08-12T16:47:57.544Z,33.50
2022-08-12T16:50:49.965Z,33.50
2022-08-12T16:53:44.927Z,33.50
2022-08-12T16:56:35.502Z,33.50
2022-08-12T16:59:30.856Z,33.40
2022-08-12T17:02:36.819Z,33.40
2022-08-12T17:05:31.377Z,33.40
2022-08-12T17:08:29.097Z,33.40
2022-08-12T17:11:18.326Z,33.40
2022-08-12T17:14:08.516Z,33.30
2022-08-12T17:16:58.358Z,33.30
2022-08-12T17:20:29.263Z,33.20
2022-08-12T17:22:57.452Z,33.20
2022-08-12T17:25:48.903Z,33.10
2022-08-12T17:28:37.410Z,33.10
2022-08-12T17:32:00.171Z,33.00
2022-08-12T17:34:52.464Z,32.90
2022-08-12T17:37:41.178Z,32.80
2022-08-12T17:40:34.527Z,32.70
2022-08-12T17:43:51.778Z,32.70
2022-08-12T17:46:34.331Z,32.50
2022-08-12T17:50:02.154Z,32.50
2022-08-12T17:52:33.338Z,32.40
2022-08-12T17:55:43.919Z,32.30
2022-08-12T17:58:37.567Z,32.30
2022-08-12T18:01:29.129Z,32.20
2022-08-12T18:04:22.193Z,32.20
2022-08-12T18:07:12.831Z,32.10
2022-08-12T18:10:02.937Z,32.00
2022-08-12T18:12:53.603Z,32.00
2022-08-12T18:16:06.381Z,31.90
2022-08-12T18:18:58.645Z,31.90
2022-08-12T18:22:01.779Z,31.90
2022-08-12T18:25:00.820Z,31.80
2022-08-12T18:28:15.145Z,31.60
2022-08-12T18:31:03.533Z,31.50
2022-08-12T18:33:52.726Z,31.30
2022-08-12T18:36:41.613Z,31.10
2022-08-12T18:39:53.092Z,30.90
2022-08-12T18:42:54.203Z,30.70
2022-08-12T18:45:47.080Z,30.50
2022-08-12T18:48:47.167Z,30.30
2022-08-12T18:51:48.984Z,30.10
2022-08-12T18:54:49.391Z,29.80
2022-08-12T18:57:45.841Z,29.70
2022-08-12T19:00:52.504Z,29.40
2022-08-12T19:03:41.115Z,29.20
2022-08-12T19:06:38.137Z,29.00
2022-08-12T19:09:38.808Z,28.70
2022-08-12T19:13:01.578Z,28.50
2022-08-12T19:15:50.878Z,28.30
2022-08-12T19:18:40.937Z,28.10
2022-08-12T19:21:37.129Z,27.90
2022-08-12T19:24:43.564Z,27.70
2022-08-12T19:27:36.212Z,27.50
2022-08-12T19:30:57.153Z,27.30
2022-08-12T19:34:06.456Z,27.10
2022-08-12T19:36:55.981Z,26.90
2022-08-12T19:40:08.723Z,26.70
2022-08-12T19:42:57.644Z,26.60
2022-08-12T19:45:51.349Z,26.40
2022-08-12T19:48:41.013Z,26.30
2022-08-12T19:51:33.341Z,26.10
2022-08-12T19:54:27.131Z,26.00
2022-08-12T19:57:18.791Z,25.90
2022-08-12T20:00:17.299Z,25.80
2022-08-12T20:03:06.214Z,25.80
2022-08-12T20:06:07.275Z,25.70
2022-08-12T20:08:57.424Z,25.60
2022-08-12T20:12:12.352Z,25.60
2022-08-12T20:14:58.176Z,25.60
2022-08-12T20:17:50.977Z,25.50
2022-08-12T20:20:40.073Z,25.50
2022-08-12T20:23:50.739Z,25.50
2022-08-12T20:26:41.646Z,25.40
2022-08-12T20:29:35.622Z,25.40
2022-08-12T20:32:29.637Z,25.30
2022-08-12T20:36:06.724Z,25.30
2022-08-12T20:38:38.169Z,25.30
2022-08-12T20:41:26.753Z,25.30
2022-08-12T20:44:19.539Z,25.20
2022-08-12T20:47:18.525Z,25.20
2022-08-12T20:50:10.723Z,25.10
2022-08-12T20:52:59.494Z,25.10
2022-08-12T20:55:56.863Z,25.00
2022-08-12T20:58:46.138Z,24.90
2022-08-12T21:01:46.802Z,24.90
2022-08-12T21:04:56.354Z,24.80
2022-08-12T21:07:51.673Z,24.80
2022-08-12T21:10:42.112Z,24.70
2022-08-12T21:13:39.249Z,24.60
2022-08-12T21:16:31.438Z,24.50
2022-08-12T21:19:24.580Z,24.50
2022-08-12T21:22:34.724Z,24.40
2022-08-12T21:25:25.454Z,24.40
2022-08-12T21:28:31.093Z,24.40
2022-08-12T21:32:40.017Z,24.40
2022-08-12T21:34:30.916Z,24.40
2022-08-12T21:37:26.778Z,24.40
2022-08-12T21:40:17.710Z,24.40
2022-08-12T21:43:07.596Z,24.40
2022-08-12T21:46:01.664Z,24.40
2022-08-12T21:48:56.737Z,24.40
2022-08-12T21:51:50.259Z,24.30
2022-08-12T21:54:42.614Z,24.30
2022-08-12T21:57:36.334Z,24.20
2022-08-12T22:00:39.440Z,24.20
2022-08-12T22:04:03.290Z,24.20
2022-08-12T22:06:54.377Z,24.20
2022-08-12T22:09:43.795Z,24.30
2022-08-12T22:12:37.567Z,24.40
2022-08-12T22:15:26.444Z,24.40
2022-08-12T22:18:17.098Z,24.50
2022-08-12T22:21:08.986Z,24.60
2022-08-12T22:24:05.677Z,24.70
2022-08-12T22:26:54.411Z,24.70
2022-08-12T22:30:02.196Z,24.80
2022-08-12T22:32:55.126Z,24.80
2022-08-12T22:35:55.954Z,24.90
2022-08-12T22:38:48.045Z,24.90
2022-08-12T22:41:57.866Z,24.90
2022-08-12T22:45:05.505Z,24.90
2022-08-12T22:48:05.138Z,24.90
2022-08-12T22:50:56.442Z,24.90
2022-08-12T22:53:49.296Z,24.90
2022-08-12T22:56:38.090Z,24.90
2022-08-12T22:59:27.120Z,25.00
2022-08-12T23:02:37.142Z,25.00
2022-08-12T23:05:56.845Z,25.00
2022-08-12T23:08:37.030Z,25.10
2022-08-12T23:11:33.887Z,25.10
2022-08-12T23:14:29.907Z,25.10
2022-08-12T23:17:35.273Z,25.10
2022-08-12T23:20:28.307Z,25.10
2022-08-12T23:23:17.994Z,25.10
2022-08-12T23:26:08.403Z,25.10
2022-08-12T23:29:29.966Z,25.10
2022-08-12T23:32:35.633Z,25.10
2022-08-12T23:35:45.854Z,25.10
2022-08-12T23:38:35.474Z,25.10
2022-08-12T23:41:25.179Z,25.10
2022-08-12T23:44:19.729Z,25.20
2022-08-12T23:47:10.232Z,25.00
2022-08-12T23:50:03.138Z,25.00
2022-08-12T23:52:55.388Z,25.00
2022-08-12T23:55:45.502Z,25.00
2022-08-12T23:58:34.452Z,25.00
